Clayton, Kansas
Current Conditions -  °F | °C
As of 2:53 PM on Wednesday 17 Dec 2014 (Local Time) from KHLC Reporting Station
Overcast Overcast  
Wind Chill: 19°   Ceiling: 1100
Heat Index: 28°   Visibility: 10mi
Dew Point: 22°   Wind: 10mph
Humidity: 78%   Direction: 80°E
Pressure: 30.1"   Gusts: NA
Location:  39.74°N, 100.18°W
Report Text: KHLC 172053Z AUTO 08009KT 10SM OVC011 M02/M06 A3010 RMK AO2 SLP220 T10221056 56027
Loading
Personal Weather Stations






























Interactive Weather Map New forecast layout! Learn more

10-Day Weather Forecast

Advertisements
Track Severe Weather on mobile